createdAt,value
2023-03-15T00:02:15.216Z,3.23
2023-03-15T00:04:43.473Z,3.13
2023-03-15T00:07:13.544Z,2.57
2023-03-15T00:09:41.829Z,3.00
2023-03-15T00:12:12.212Z,3.03
2023-03-15T00:14:40.485Z,3.33
2023-03-15T00:17:09.109Z,5.60
2023-03-15T00:19:37.359Z,3.77
2023-03-15T00:22:06.253Z,3.10
2023-03-15T00:24:35.834Z,3.57
2023-03-15T00:27:06.000Z,7.63
2023-03-15T00:29:34.538Z,2.20
2023-03-15T00:32:03.047Z,3.37
2023-03-15T00:34:33.834Z,3.53
2023-03-15T00:37:02.353Z,3.90
2023-03-15T00:39:30.534Z,3.20
2023-03-15T00:42:00.370Z,5.67
2023-03-15T00:44:29.201Z,4.23
2023-03-15T00:46:57.666Z,2.73
2023-03-15T00:49:25.848Z,5.20
2023-03-15T00:51:56.189Z,11.33
2023-03-15T00:54:24.874Z,2.37
2023-03-15T00:56:53.919Z,7.17
2023-03-15T00:59:23.595Z,5.33
2023-03-15T01:01:52.134Z,4.23
2023-03-15T01:04:20.369Z,2.83
2023-03-15T01:06:48.896Z,2.77
2023-03-15T01:09:17.034Z,9.97
2023-03-15T01:11:46.012Z,5.83
2023-03-15T01:14:14.337Z,6.73
2023-03-15T01:16:44.647Z,2.17
2023-03-15T01:19:13.168Z,4.17
2023-03-15T01:21:41.874Z,8.53
2023-03-15T01:24:14.231Z,4.33
2023-03-15T01:26:42.901Z,2.97
2023-03-15T01:29:12.092Z,9.53
2023-03-15T01:31:41.154Z,7.43
2023-03-15T01:34:11.529Z,6.07
2023-03-15T01:36:40.095Z,5.70
2023-03-15T01:39:08.510Z,2.07
2023-03-15T01:41:38.510Z,6.37
2023-03-15T01:44:06.903Z,6.67
2023-03-15T01:46:35.704Z,7.43
2023-03-15T01:49:09.236Z,13.43
2023-03-15T01:51:43.948Z,9.20
2023-03-15T01:54:16.780Z,5.27
2023-03-15T01:56:49.096Z,7.13
2023-03-15T01:59:22.914Z,4.27
2023-03-15T02:01:54.664Z,6.10
2023-03-15T02:04:26.526Z,6.53
2023-03-15T02:06:59.500Z,3.73
2023-03-15T02:09:36.859Z,7.57
2023-03-15T02:12:06.264Z,4.17
2023-03-15T02:14:35.252Z,5.70
2023-03-15T02:17:04.247Z,6.70
2023-03-15T02:19:54.657Z,4.07
2023-03-15T02:22:49.437Z,3.53
2023-03-15T02:25:23.720Z,2.73
2023-03-15T02:27:53.712Z,5.53
2023-03-15T02:30:22.358Z,12.47
2023-03-15T02:32:51.265Z,3.83
2023-03-15T02:35:27.593Z,4.03
2023-03-15T02:37:56.184Z,5.23
2023-03-15T02:40:27.978Z,7.13
2023-03-15T02:43:01.658Z,6.63
2023-03-15T02:45:32.325Z,5.17
2023-03-15T02:48:02.809Z,5.03
2023-03-15T02:50:31.067Z,6.83
2023-03-15T02:52:59.606Z,8.50
2023-03-15T02:55:27.936Z,6.43
2023-03-15T02:57:58.276Z,3.90
2023-03-15T03:00:27.092Z,4.70
2023-03-15T03:02:55.868Z,4.80
2023-03-15T03:05:24.325Z,2.77
2023-03-15T03:07:52.789Z,5.03
2023-03-15T03:10:23.084Z,9.13
2023-03-15T03:12:53.581Z,11.43
2023-03-15T03:15:23.361Z,9.10
2023-03-15T03:17:51.765Z,7.67
2023-03-15T03:20:20.241Z,11.57
2023-03-15T03:22:48.849Z,9.60
2023-03-15T03:25:17.089Z,6.00
2023-03-15T03:27:45.767Z,6.37
2023-03-15T03:30:15.390Z,5.53
2023-03-15T03:32:45.324Z,9.47
2023-03-15T03:35:15.608Z,9.50
2023-03-15T03:37:44.719Z,3.67
2023-03-15T03:40:14.041Z,3.13
2023-03-15T03:42:42.535Z,6.97
2023-03-15T03:45:11.600Z,4.23
2023-03-15T03:47:40.142Z,2.60
2023-03-15T03:50:11.519Z,4.43
2023-03-15T03:52:43.941Z,3.60
2023-03-15T03:55:13.738Z,3.43
2023-03-15T03:57:42.654Z,5.50
2023-03-15T04:00:14.908Z,4.60
2023-03-15T04:02:44.035Z,5.77
2023-03-15T04:05:14.730Z,5.63
2023-03-15T04:07:43.485Z,4.27
2023-03-15T04:10:14.988Z,2.10
2023-03-15T04:12:44.278Z,3.53
2023-03-15T04:15:13.141Z,3.90
2023-03-15T04:17:41.679Z,6.73
2023-03-15T04:20:13.041Z,5.43
2023-03-15T04:22:49.511Z,6.23
2023-03-15T04:25:18.231Z,1.93
2023-03-15T04:27:58.596Z,10.77
2023-03-15T04:30:28.244Z,3.40
2023-03-15T04:32:59.813Z,8.27
2023-03-15T04:35:28.328Z,3.40
2023-03-15T04:37:58.726Z,10.17
2023-03-15T04:40:27.301Z,7.90
2023-03-15T04:42:56.915Z,8.60
2023-03-15T04:45:25.598Z,4.73
2023-03-15T04:47:54.736Z,3.87
2023-03-15T04:50:23.921Z,3.57
2023-03-15T04:52:52.696Z,5.63
2023-03-15T04:55:22.253Z,3.43
2023-03-15T04:57:50.930Z,6.03
2023-03-15T05:00:19.742Z,7.43
2023-03-15T05:02:54.759Z,9.77
2023-03-15T05:05:23.958Z,3.80
2023-03-15T05:07:52.607Z,6.50
2023-03-15T05:10:22.423Z,5.43
2023-03-15T05:12:50.910Z,4.50
2023-03-15T05:15:19.458Z,6.53
2023-03-15T05:17:48.888Z,4.37
2023-03-15T05:20:17.883Z,6.40
2023-03-15T05:22:46.375Z,10.10
2023-03-15T05:25:15.416Z,3.80
2023-03-15T05:27:46.499Z,3.67
2023-03-15T05:30:16.945Z,8.77
2023-03-15T05:32:45.805Z,5.80
2023-03-15T05:35:14.736Z,6.03
2023-03-15T05:37:43.298Z,8.23
2023-03-15T05:40:12.992Z,6.18
2023-03-15T05:42:41.636Z,8.97
2023-03-15T05:45:12.246Z,12.97
2023-03-15T05:47:40.779Z,11.67
2023-03-15T05:50:09.990Z,6.97
2023-03-15T05:52:38.771Z,6.80
2023-03-15T05:55:07.886Z,11.03
2023-03-15T05:57:36.830Z,6.00
2023-03-15T06:00:07.136Z,4.07
2023-03-15T06:02:37.101Z,5.97
2023-03-15T06:05:06.014Z,6.97
2023-03-15T06:07:34.506Z,12.97
2023-03-15T06:10:03.147Z,3.77
2023-03-15T06:12:31.804Z,14.53
2023-03-15T06:15:00.132Z,8.03
2023-03-15T06:17:28.684Z,6.43
2023-03-15T06:19:58.485Z,6.30
2023-03-15T06:22:28.014Z,4.03
2023-03-15T06:24:56.317Z,5.70
2023-03-15T06:27:24.850Z,8.33
2023-03-15T06:29:53.968Z,10.70
2023-03-15T06:32:22.750Z,4.87
2023-03-15T06:34:51.144Z,8.47
2023-03-15T06:37:34.167Z,8.27
2023-03-15T06:40:06.041Z,5.23
2023-03-15T06:42:34.915Z,5.37
2023-03-15T06:45:03.579Z,3.63
2023-03-15T06:47:32.458Z,5.10
2023-03-15T06:50:00.874Z,6.27
2023-03-15T06:52:30.799Z,10.67
2023-03-15T06:54:59.051Z,7.70
2023-03-15T06:57:27.610Z,9.00
2023-03-15T06:59:55.972Z,8.60
2023-03-15T07:02:24.523Z,5.57
2023-03-15T07:04:53.216Z,7.47
2023-03-15T07:07:21.846Z,8.53
2023-03-15T07:09:52.137Z,15.73
2023-03-15T07:12:21.166Z,12.43
2023-03-15T07:14:49.691Z,4.70
2023-03-15T07:17:18.596Z,5.87
2023-03-15T07:19:56.252Z,6.17
2023-03-15T07:22:26.628Z,9.93
2023-03-15T07:24:56.392Z,16.27
2023-03-15T07:27:24.984Z,6.97
2023-03-15T07:29:53.325Z,8.10
2023-03-15T07:32:22.172Z,8.20
2023-03-15T07:34:50.569Z,11.77
2023-03-15T07:37:20.534Z,7.37
2023-03-15T07:39:48.792Z,7.03
2023-03-15T07:42:21.453Z,5.80
2023-03-15T07:44:49.964Z,6.10
2023-03-15T07:47:18.724Z,7.77
2023-03-15T07:49:46.985Z,7.27
2023-03-15T07:52:15.627Z,6.13
2023-03-15T07:54:44.119Z,6.10
2023-03-15T07:57:12.787Z,19.67
2023-03-15T07:59:42.416Z,15.23
2023-03-15T08:02:13.623Z,7.67
2023-03-15T08:04:44.826Z,5.20
2023-03-15T08:07:13.327Z,9.40
2023-03-15T08:09:41.526Z,9.60
2023-03-15T08:12:10.431Z,8.07
2023-03-15T08:14:38.710Z,5.53
2023-03-15T08:18:01.079Z,8.20
2023-03-15T08:20:33.855Z,10.93
2023-03-15T08:23:02.898Z,7.83
2023-03-15T08:25:31.939Z,8.83
2023-03-15T08:28:00.993Z,6.87
2023-03-15T08:30:29.276Z,9.10
2023-03-15T08:32:57.796Z,6.67
2023-03-15T08:35:26.023Z,5.83
2023-03-15T08:37:56.623Z,8.07
2023-03-15T08:40:25.022Z,14.07
2023-03-15T08:42:54.535Z,13.90
2023-03-15T08:45:24.110Z,13.07
2023-03-15T08:47:56.145Z,14.40
2023-03-15T08:50:25.104Z,14.60
2023-03-15T08:52:55.383Z,10.00
2023-03-15T08:55:23.641Z,4.67
2023-03-15T08:57:52.173Z,9.80
2023-03-15T09:00:22.940Z,9.77
2023-03-15T09:02:53.158Z,10.33
2023-03-15T09:05:22.528Z,11.57
2023-03-15T09:07:53.212Z,6.63
2023-03-15T09:10:23.383Z,9.37
2023-03-15T09:12:54.088Z,14.63
2023-03-15T09:15:22.548Z,14.40
2023-03-15T09:17:52.370Z,11.40
2023-03-15T09:20:23.015Z,6.77
2023-03-15T09:22:53.063Z,5.70
2023-03-15T09:25:23.660Z,10.83
2023-03-15T09:27:52.943Z,9.83
2023-03-15T09:30:21.687Z,8.87
2023-03-15T09:32:51.466Z,11.57
2023-03-15T09:35:21.342Z,9.33
2023-03-15T09:37:51.006Z,10.97
2023-03-15T09:40:23.488Z,6.47
2023-03-15T09:43:03.373Z,11.77
2023-03-15T09:45:44.566Z,19.73
2023-03-15T09:48:18.176Z,10.23
2023-03-15T09:50:49.827Z,14.13
2023-03-15T09:53:22.705Z,6.37
2023-03-15T09:55:52.687Z,12.27
2023-03-15T09:58:26.865Z,6.60
2023-03-15T10:00:58.066Z,8.10
2023-03-15T10:03:33.286Z,8.17
2023-03-15T10:06:06.872Z,13.00
2023-03-15T10:08:35.494Z,7.63
2023-03-15T10:11:13.200Z,5.90
2023-03-15T10:14:06.320Z,8.27
2023-03-15T10:16:41.456Z,15.50
2023-03-15T10:19:24.019Z,8.87
2023-03-15T10:21:59.120Z,8.63
2023-03-15T10:24:35.987Z,6.87
2023-03-15T10:27:16.808Z,8.97
2023-03-15T10:29:48.659Z,10.65
2023-03-15T10:32:19.757Z,8.77
2023-03-15T10:34:51.552Z,8.80
2023-03-15T10:37:20.260Z,11.80
2023-03-15T10:39:53.508Z,15.77
2023-03-15T10:42:32.829Z,10.10
2023-03-15T10:45:15.729Z,14.90
2023-03-15T10:47:47.766Z,8.03
2023-03-15T10:50:27.523Z,10.70
2023-03-15T10:52:57.821Z,6.72
2023-03-15T10:55:34.042Z,7.78
2023-03-15T10:58:20.161Z,6.90
2023-03-15T11:00:53.003Z,9.07
2023-03-15T11:03:23.756Z,8.30
2023-03-15T11:05:53.817Z,6.37
2023-03-15T11:08:24.090Z,11.17
2023-03-15T11:10:59.165Z,7.10
2023-03-15T11:13:29.391Z,6.53
2023-03-15T11:16:04.499Z,11.47
2023-03-15T11:18:39.024Z,8.18
2023-03-15T11:21:11.627Z,5.57
2023-03-15T11:23:42.716Z,7.27
2023-03-15T11:26:31.401Z,8.70
2023-03-15T11:29:05.271Z,10.63
2023-03-15T11:31:36.854Z,5.73
2023-03-15T11:34:09.099Z,5.90
2023-03-15T11:36:42.480Z,6.70
2023-03-15T11:39:15.340Z,11.50
2023-03-15T11:41:48.824Z,10.90
2023-03-15T11:44:27.009Z,9.40
2023-03-15T11:47:03.279Z,5.33
2023-03-15T11:49:37.723Z,5.60
2023-03-15T11:52:09.539Z,7.03
2023-03-15T11:54:37.976Z,10.07
2023-03-15T11:57:08.478Z,6.80
2023-03-15T11:59:39.309Z,7.05
2023-03-15T12:02:49.439Z,12.02
2023-03-15T12:05:45.966Z,4.13
2023-03-15T12:08:22.381Z,17.90
2023-03-15T12:10:50.868Z,8.70
2023-03-15T12:13:24.759Z,6.57
2023-03-15T12:15:54.164Z,5.60
2023-03-15T12:18:34.050Z,8.18
2023-03-15T12:21:18.060Z,8.25
2023-03-15T12:24:01.641Z,6.63
2023-03-15T12:26:42.082Z,14.53
2023-03-15T12:29:23.088Z,8.13
2023-03-15T12:31:58.607Z,10.37
2023-03-15T12:34:39.197Z,5.43
2023-03-15T12:37:10.446Z,8.17
2023-03-15T12:39:42.944Z,9.73
2023-03-15T12:42:49.080Z,10.90
2023-03-15T12:45:39.676Z,8.48
2023-03-15T12:48:25.210Z,4.57
2023-03-15T12:50:58.614Z,5.87
2023-03-15T12:53:38.810Z,7.83
2023-03-15T12:56:32.742Z,6.90
2023-03-15T12:59:11.196Z,7.60
2023-03-15T13:01:39.723Z,8.40
2023-03-15T13:04:08.166Z,6.97
2023-03-15T13:06:46.886Z,5.93
2023-03-15T13:09:26.722Z,8.40
2023-03-15T13:12:02.368Z,4.40
2023-03-15T13:14:43.076Z,5.00
2023-03-15T13:17:22.664Z,7.53
2023-03-15T13:20:03.282Z,5.67
2023-03-15T13:22:49.944Z,7.40
2023-03-15T13:25:31.177Z,10.50
2023-03-15T13:28:04.039Z,9.30
2023-03-15T13:30:35.496Z,6.87
2023-03-15T13:33:07.457Z,8.52
2023-03-15T13:35:43.736Z,9.93
2023-03-15T13:38:26.790Z,4.30
2023-03-15T13:40:56.249Z,7.50
2023-03-15T13:43:30.539Z,3.13
2023-03-15T13:46:00.029Z,10.20
2023-03-15T13:48:30.057Z,5.63
2023-03-15T13:51:05.340Z,4.57
2023-03-15T13:53:49.107Z,3.13
2023-03-15T13:56:20.937Z,10.33
2023-03-15T13:58:51.996Z,3.70
2023-03-15T14:01:23.115Z,8.50
2023-03-15T14:03:58.478Z,5.93
2023-03-15T14:06:28.113Z,3.33
2023-03-15T14:09:09.069Z,5.60
2023-03-15T14:11:40.263Z,2.50
2023-03-15T14:14:27.868Z,5.07
2023-03-15T14:17:05.514Z,6.07
2023-03-15T14:19:36.875Z,5.50
2023-03-15T14:22:15.452Z,5.80
2023-03-15T14:24:49.135Z,6.55
2023-03-15T14:27:19.254Z,4.67
2023-03-15T14:29:49.660Z,4.72
2023-03-15T14:32:27.816Z,4.53
2023-03-15T14:35:05.500Z,7.43
2023-03-15T14:37:39.273Z,3.72
2023-03-15T14:40:17.778Z,7.57
2023-03-15T14:42:46.746Z,1.55
2023-03-15T14:45:16.109Z,2.33
2023-03-15T14:47:55.941Z,3.30
2023-03-15T14:50:27.909Z,6.57
2023-03-15T14:52:58.587Z,2.08
2023-03-15T14:55:35.013Z,3.60
2023-03-15T14:58:03.574Z,4.35
2023-03-15T15:00:34.025Z,4.65
2023-03-15T15:03:03.183Z,5.43
2023-03-15T15:05:34.518Z,4.00
2023-03-15T15:08:06.768Z,4.68
2023-03-15T15:10:37.877Z,4.97
2023-03-15T15:13:07.413Z,5.57
2023-03-15T15:15:53.854Z,5.38
2023-03-15T15:18:23.076Z,2.53
2023-03-15T15:20:54.391Z,7.25
2023-03-15T15:23:25.503Z,8.50
2023-03-15T15:25:58.582Z,5.70
2023-03-15T15:28:35.275Z,5.47
2023-03-15T15:31:06.871Z,4.68
2023-03-15T15:33:35.351Z,13.25
2023-03-15T15:36:04.590Z,2.60
2023-03-15T15:38:38.950Z,3.13
2023-03-15T15:41:14.455Z,5.10
2023-03-15T15:43:43.447Z,3.70
2023-03-15T15:46:13.340Z,4.75
2023-03-15T15:48:42.354Z,13.13
2023-03-15T15:51:21.359Z,7.43
2023-03-15T15:53:49.785Z,11.30
2023-03-15T15:56:19.669Z,13.20
2023-03-15T15:58:48.496Z,18.25
2023-03-15T16:01:17.759Z,22.15
2023-03-15T16:03:46.090Z,19.65
2023-03-15T16:06:18.789Z,23.25
2023-03-15T16:08:47.952Z,16.25
2023-03-15T16:11:19.830Z,16.70
2023-03-15T16:14:05.744Z,21.17
2023-03-15T16:16:34.362Z,24.35
2023-03-15T16:19:03.301Z,18.45
2023-03-15T16:21:35.112Z,12.85
2023-03-15T16:24:09.798Z,16.10
2023-03-15T16:26:40.672Z,23.02
2023-03-15T16:29:20.217Z,11.88
2023-03-15T16:31:49.061Z,20.70
2023-03-15T16:34:19.660Z,20.93
2023-03-15T16:37:06.878Z,19.50
2023-03-15T16:39:38.150Z,31.33
2023-03-15T16:42:11.245Z,8.77
2023-03-15T16:44:39.593Z,13.38
2023-03-15T16:47:09.038Z,20.33
2023-03-15T16:49:37.844Z,17.40
2023-03-15T16:52:09.895Z,10.98
2023-03-15T16:57:28.795Z,7.47
2023-03-15T16:59:57.064Z,3.67
2023-03-15T17:02:27.511Z,7.17
2023-03-15T17:04:56.161Z,6.53
2023-03-15T17:07:31.269Z,2.40
2023-03-15T17:10:02.395Z,4.40
2023-03-15T17:12:32.516Z,6.30
2023-03-15T17:15:01.593Z,7.27
2023-03-15T17:17:33.111Z,14.27
2023-03-15T17:20:01.885Z,8.93
2023-03-15T17:22:30.838Z,4.57
2023-03-15T17:24:59.092Z,3.73
2023-03-15T17:27:33.979Z,5.97
2023-03-15T17:30:02.310Z,4.57
2023-03-15T17:32:31.017Z,5.90
2023-03-15T17:34:59.783Z,6.00
2023-03-15T17:37:33.906Z,11.23
2023-03-15T17:40:12.384Z,8.43
2023-03-15T17:42:42.290Z,14.20
2023-03-15T17:45:17.171Z,5.67
2023-03-15T17:47:45.797Z,13.47
2023-03-15T17:50:14.840Z,7.07
2023-03-15T17:52:44.787Z,7.97
2023-03-15T17:55:17.004Z,15.00
2023-03-15T17:57:54.817Z,11.07
2023-03-15T18:00:24.912Z,21.60
2023-03-15T18:02:56.638Z,13.97
2023-03-15T18:05:27.266Z,13.07
2023-03-15T18:07:59.108Z,14.70
2023-03-15T18:10:33.279Z,12.50
2023-03-15T18:13:04.033Z,11.43
2023-03-15T18:15:34.935Z,20.70
2023-03-15T18:18:06.207Z,15.37
2023-03-15T18:20:34.738Z,22.57
2023-03-15T18:23:04.064Z,19.50
2023-03-15T18:25:34.469Z,15.13
2023-03-15T18:28:04.610Z,18.07
2023-03-15T18:30:33.728Z,16.70
2023-03-15T18:33:03.767Z,16.80
2023-03-15T18:35:34.118Z,18.20
2023-03-15T18:38:04.157Z,17.30
2023-03-15T18:40:33.795Z,14.13
2023-03-15T18:43:04.215Z,17.73
2023-03-15T18:45:36.090Z,16.67
2023-03-15T18:48:05.653Z,15.03
2023-03-15T18:50:34.985Z,15.97
2023-03-15T18:53:06.134Z,26.07
2023-03-15T18:55:35.254Z,18.30
2023-03-15T18:58:04.097Z,14.97
2023-03-15T19:00:36.134Z,13.67
2023-03-15T19:03:07.026Z,23.67
2023-03-15T19:05:37.805Z,31.10
2023-03-15T19:08:06.658Z,26.73
2023-03-15T19:10:34.962Z,28.13
2023-03-15T19:13:04.672Z,38.13
2023-03-15T19:15:34.542Z,29.13
2023-03-15T19:18:03.373Z,37.47
2023-03-15T19:20:31.741Z,27.57
2023-03-15T19:23:00.246Z,35.10
2023-03-15T19:25:28.518Z,32.90
2023-03-15T19:27:57.403Z,33.30
2023-03-15T19:30:26.432Z,30.10
2023-03-15T19:32:56.537Z,37.77
2023-03-15T19:35:25.861Z,29.67
2023-03-15T19:38:02.685Z,34.57
2023-03-15T19:40:31.172Z,29.33
2023-03-15T19:42:59.698Z,34.90
2023-03-15T19:45:27.878Z,26.10
2023-03-15T19:47:57.988Z,28.03
2023-03-15T19:50:30.910Z,18.80
2023-03-15T19:52:59.769Z,47.67
2023-03-15T19:55:30.390Z,32.80
2023-03-15T19:58:00.005Z,21.90
2023-03-15T20:00:28.220Z,29.80
2023-03-15T20:02:58.496Z,30.80
2023-03-15T20:05:26.862Z,28.60
2023-03-15T20:07:56.069Z,27.93
2023-03-15T20:10:24.520Z,38.67
2023-03-15T20:12:59.077Z,36.40
2023-03-15T20:15:29.394Z,32.83
2023-03-15T20:17:59.384Z,30.60
2023-03-15T20:20:27.600Z,36.67
2023-03-15T20:22:56.454Z,32.67
2023-03-15T20:25:24.880Z,37.60
2023-03-15T20:27:53.370Z,41.53
2023-03-15T20:30:22.004Z,31.33
2023-03-15T20:32:50.964Z,26.80
2023-03-15T20:35:20.670Z,22.47
2023-03-15T20:37:49.146Z,32.93
2023-03-15T20:40:17.632Z,21.63
2023-03-15T20:42:46.311Z,26.80
2023-03-15T20:45:14.923Z,19.57
2023-03-15T20:47:43.528Z,20.60
2023-03-15T20:50:13.152Z,22.13
2023-03-15T20:52:43.651Z,23.53
2023-03-15T20:55:13.697Z,20.93
2023-03-15T20:57:43.087Z,21.73
2023-03-15T21:00:16.826Z,29.40
2023-03-15T21:02:45.986Z,17.00
2023-03-15T21:05:14.791Z,26.10
2023-03-15T21:07:45.648Z,17.43
2023-03-15T21:10:15.434Z,20.07
2023-03-15T21:12:44.969Z,17.53
2023-03-15T21:15:17.395Z,17.37
2023-03-15T21:17:49.039Z,21.87
2023-03-15T21:20:17.621Z,22.47
2023-03-15T21:22:47.713Z,20.67
2023-03-15T21:25:16.956Z,25.83
2023-03-15T21:27:45.858Z,24.87
2023-03-15T21:30:15.005Z,19.67
2023-03-15T21:32:44.811Z,18.20
2023-03-15T21:35:14.188Z,24.00
2023-03-15T21:37:42.718Z,32.47
2023-03-15T21:40:14.007Z,17.70
2023-03-15T21:42:43.612Z,24.53
2023-03-15T21:45:13.001Z,22.10
2023-03-15T21:47:41.734Z,22.67
2023-03-15T21:50:12.682Z,17.87
2023-03-15T21:52:41.342Z,16.53
2023-03-15T21:55:10.343Z,25.30
2023-03-15T21:57:40.292Z,15.80
2023-03-15T22:00:11.980Z,22.23
2023-03-15T22:02:40.965Z,19.60
2023-03-15T22:05:12.067Z,17.80
2023-03-15T22:07:41.203Z,19.90
2023-03-15T22:10:10.865Z,16.37
2023-03-15T22:12:42.343Z,15.27
2023-03-15T22:15:12.002Z,11.67
2023-03-15T22:17:40.604Z,15.80
2023-03-15T22:20:12.844Z,13.77
2023-03-15T22:22:41.375Z,19.23
2023-03-15T22:25:09.947Z,16.87
2023-03-15T22:27:40.041Z,16.77
2023-03-15T22:30:09.587Z,15.23
2023-03-15T22:32:38.392Z,17.07
2023-03-15T22:35:07.672Z,14.67
2023-03-15T22:37:36.262Z,14.93
2023-03-15T22:40:06.715Z,17.00
2023-03-15T22:42:35.212Z,16.10
2023-03-15T22:45:05.607Z,23.70
2023-03-15T22:47:34.078Z,14.67
2023-03-15T22:50:02.255Z,21.87
2023-03-15T22:52:30.660Z,18.17
2023-03-15T22:54:58.875Z,28.30
2023-03-15T22:57:27.361Z,13.83
2023-03-15T22:59:56.219Z,15.47
2023-03-15T23:02:26.064Z,16.00
2023-03-15T23:04:54.627Z,20.83
2023-03-15T23:07:23.265Z,24.67
2023-03-15T23:09:51.648Z,19.40
2023-03-15T23:12:27.122Z,12.20
2023-03-15T23:15:03.999Z,19.77
2023-03-15T23:17:34.147Z,22.70
2023-03-15T23:20:02.501Z,16.10
2023-03-15T23:22:31.077Z,17.67
2023-03-15T23:24:59.331Z,17.67
2023-03-15T23:27:28.012Z,17.90
2023-03-15T23:29:56.240Z,18.13
2023-03-15T23:32:26.286Z,16.70
2023-03-15T23:34:55.983Z,20.27
2023-03-15T23:37:24.655Z,16.10
2023-03-15T23:39:53.736Z,14.97
2023-03-15T23:42:25.755Z,13.57
2023-03-15T23:44:54.647Z,17.60
2023-03-15T23:47:24.178Z,14.90
2023-03-15T23:49:53.154Z,12.27
2023-03-15T23:52:25.411Z,18.93
2023-03-15T23:54:53.976Z,13.90
2023-03-15T23:57:22.890Z,13.47
2023-03-15T23:59:51.295Z,22.43
